Time;durP1;ratioP1;P1;durP2;ratioP2;P2;SDS_P1;SDS_P2;PMS_P1;PMS_P2;Temp;Humidity;BMP_temperature;BMP_pressure;BME280_temperature;BME280_humidity;BME280_pressure;Samples;Min_cycle;Max_cycle;Signal;HPM_P1;HPM_P2
2021/06/20 00:00:26;;;;;;;15.80;10.40;;;20.20;99.90;;;;;;4970109;28;20247;-65
2021/06/20 00:02:56;;;;;;;18.50;10.83;;;20.10;99.90;;;;;;4970228;28;20212;-65
2021/06/20 00:05:25;;;;;;;12.77;9.47;;;20.00;99.90;;;;;;4970357;28;20208;-66
2021/06/20 00:07:53;;;;;;;14.53;9.63;;;20.00;99.90;;;;;;4970140;28;20726;-65
2021/06/20 00:10:22;;;;;;;17.10;10.73;;;19.90;1.00;;;;;;4969966;28;20299;-65
2021/06/20 00:12:50;;;;;;;15.10;10.57;;;19.80;99.90;;;;;;4970198;28;20208;-66
2021/06/20 00:15:18;;;;;;;14.77;10.00;;;19.90;1.00;;;;;;4969757;28;20232;-65
2021/06/20 00:17:47;;;;;;;12.80;9.80;;;20.00;1.00;;;;;;4969986;28;20732;-65
2021/06/20 00:20:17;;;;;;;19.60;10.70;;;20.00;1.00;;;;;;4970176;28;20216;-65
2021/06/20 00:22:44;;;;;;;14.97;11.27;;;19.90;89.10;;;;;;4970173;28;20211;-65
2021/06/20 00:25:11;;;;;;;17.10;11.97;;;19.80;1.00;;;;;;4970057;28;20207;-66
2021/06/20 00:27:38;;;;;;;15.63;10.57;;;19.80;81.00;;;;;;4970744;28;20591;-66
2021/06/20 00:30:07;;;;;;;13.00;8.97;;;19.90;99.90;;;;;;4970031;28;20213;-65
2021/06/20 00:32:34;;;;;;;15.03;7.43;;;19.80;99.90;;;;;;4970150;28;20615;-65
2021/06/20 00:35:02;;;;;;;16.97;7.77;;;19.60;93.90;;;;;;4970233;28;20239;-65
2021/06/20 00:37:29;;;;;;;11.43;6.30;;;19.50;33.40;;;;;;4970066;28;20248;-65
2021/06/20 00:39:55;;;;;;;9.13;6.77;;;19.50;39.80;;;;;;4972042;28;20552;-65
2021/06/20 00:42:22;;;;;;;14.60;7.43;;;19.50;1.00;;;;;;4973165;28;20584;-65
2021/06/20 00:44:51;;;;;;;13.33;7.03;;;19.50;1.00;;;;;;4973539;28;20215;-65
2021/06/20 00:47:18;;;;;;;11.97;7.47;;;19.50;1.00;;;;;;4973094;28;20234;-65
2021/06/20 00:49:45;;;;;;;12.87;7.60;;;19.50;1.00;;;;;;4973233;28;20220;-65
2021/06/20 00:52:13;;;;;;;19.33;8.40;;;19.50;1.00;;;;;;4972957;28;20217;-66
2021/06/20 00:54:46;;;;;;;13.33;7.40;;;19.50;49.30;;;;;;4973124;28;20228;-65
2021/06/20 00:57:15;;;;;;;14.03;8.40;;;19.50;99.90;;;;;;4973299;28;20266;-65
2021/06/20 00:59:43;;;;;;;17.77;10.50;;;19.50;99.90;;;;;;4973285;28;20239;-65
2021/06/20 01:02:11;;;;;;;13.27;9.80;;;19.50;99.90;;;;;;4973164;28;20212;-65
2021/06/20 01:04:37;;;;;;;14.13;8.97;;;19.50;99.90;;;;;;4972945;28;20205;-65
2021/06/20 01:07:04;;;;;;;16.03;8.57;;;19.50;99.90;;;;;;4972810;28;20580;-65
2021/06/20 01:09:32;;;;;;;14.57;8.60;;;19.50;99.90;;;;;;4973109;28;20208;-65
2021/06/20 01:11:59;;;;;;;14.20;9.00;;;19.50;99.90;;;;;;4972788;28;20211;-65
2021/06/20 01:14:26;;;;;;;17.33;8.40;;;19.50;99.90;;;;;;4972582;28;20219;-66
2021/06/20 01:16:55;;;;;;;12.27;8.57;;;19.50;99.90;;;;;;4972630;28;20235;-65
2021/06/20 01:19:22;;;;;;;12.63;7.97;;;19.50;99.90;;;;;;4972876;28;20575;-65
2021/06/20 01:21:49;;;;;;;17.40;8.60;;;19.50;99.90;;;;;;4972359;28;20211;-65
2021/06/20 01:24:17;;;;;;;12.50;7.33;;;19.40;99.90;;;;;;4972365;28;20208;-65
2021/06/20 01:26:44;;;;;;;9.60;6.27;;;19.40;99.90;;;;;;4972611;28;20208;-65
2021/06/20 01:29:13;;;;;;;13.33;6.20;;;19.30;99.90;;;;;;4972231;28;20232;-65
2021/06/20 01:31:48;;;;;;;8.17;5.37;;;19.30;99.90;;;;;;4972123;28;20212;-65
2021/06/20 01:34:15;;;;;;;9.23;5.23;;;19.30;34.30;;;;;;4972327;28;20269;-65
2021/06/20 01:36:42;;;;;;;10.13;4.97;;;19.20;1.00;;;;;;4972255;28;20223;-65
2021/06/20 01:39:10;;;;;;;11.37;4.60;;;19.20;99.90;;;;;;4972345;28;20232;-65
2021/06/20 01:41:38;;;;;;;10.60;4.70;;;19.20;99.90;;;;;;4972266;28;20208;-65
2021/06/20 01:44:05;;;;;;;12.93;4.87;;;19.20;80.50;;;;;;4972348;28;20209;-64
2021/06/20 01:46:32;;;;;;;6.90;3.60;;;19.20;52.60;;;;;;4972074;28;20598;-65
2021/06/20 01:48:59;;;;;;;8.10;3.47;;;19.20;1.00;;;;;;4972018;28;20228;-65
2021/06/20 01:51:25;;;;;;;8.83;3.67;;;19.20;99.90;;;;;;4971545;28;20212;-65
2021/06/20 01:53:52;;;;;;;7.77;3.90;;;19.20;99.90;;;;;;4972320;28;20209;-65
2021/06/20 01:56:19;;;;;;;9.97;4.03;;;19.20;1.00;;;;;;4971838;28;20648;-65
2021/06/20 01:58:47;;;;;;;6.63;3.67;;;19.20;1.00;;;;;;4972203;28;20236;-65
2021/06/20 02:01:16;;;;;;;9.50;3.90;;;19.10;99.90;;;;;;4971906;28;20216;-65
2021/06/20 02:03:43;;;;;;;7.87;3.50;;;19.10;99.90;;;;;;4972011;28;20243;-65
2021/06/20 02:06:10;;;;;;;7.10;3.30;;;19.10;1.00;;;;;;4971992;28;20204;-65
2021/06/20 02:08:37;;;;;;;5.17;3.20;;;19.00;1.00;;;;;;4971761;28;20244;-65
2021/06/20 02:11:03;;;;;;;6.73;3.60;;;19.00;1.00;;;;;;4971681;28;20204;-65
2021/06/20 02:13:30;;;;;;;7.67;3.73;;;19.10;1.00;;;;;;4971854;28;20219;-65
2021/06/20 02:15:59;;;;;;;12.60;3.77;;;19.00;1.00;;;;;;4971575;28;20220;-65
2021/06/20 02:18:25;;;;;;;15.80;4.53;;;19.00;1.00;;;;;;4971493;28;20228;-65
2021/06/20 02:20:54;;;;;;;9.70;3.93;;;19.00;1.00;;;;;;4971777;28;20240;-65
2021/06/20 02:23:21;;;;;;;10.13;3.90;;;19.00;1.00;;;;;;4971633;28;20308;-65
2021/06/20 02:25:48;;;;;;;8.13;4.13;;;18.90;51.80;;;;;;4971636;28;20207;-65
2021/06/20 02:28:14;;;;;;;9.93;4.10;;;18.90;99.90;;;;;;4971409;28;20264;-65
2021/06/20 02:30:41;;;;;;;5.87;3.20;;;18.90;99.90;;;;;;4971424;28;20208;-65
2021/06/20 02:33:09;;;;;;;15.43;4.10;;;18.90;20.70;;;;;;4971577;28;20212;-65
2021/06/20 02:35:36;;;;;;;6.60;3.00;;;19.00;99.90;;;;;;4971553;28;20225;-65
2021/06/20 02:38:03;;;;;;;6.87;2.87;;;19.00;99.90;;;;;;4971315;28;20228;-65
2021/06/20 02:40:30;;;;;;;7.23;3.20;;;19.00;99.90;;;;;;4971400;28;20212;-65
2021/06/20 02:42:57;;;;;;;8.87;2.90;;;19.00;1.00;;;;;;4971540;28;20212;-65
2021/06/20 02:45:25;;;;;;;12.37;3.20;;;19.00;1.00;;;;;;4971182;28;20617;-65
2021/06/20 02:47:52;;;;;;;9.70;3.43;;;19.00;1.00;;;;;;4971333;28;20298;-65
2021/06/20 02:50:20;;;;;;;5.97;2.83;;;19.00;1.00;;;;;;4971301;28;20211;-65
2021/06/20 02:52:47;;;;;;;8.47;3.40;;;19.00;1.00;;;;;;4971292;28;20211;-65
2021/06/20 02:55:15;;;;;;;6.47;3.40;;;19.00;1.00;;;;;;4971082;28;20228;-65
2021/06/20 02:57:42;;;;;;;10.97;3.90;;;19.00;1.00;;;;;;4971011;28;20612;-65
2021/06/20 03:00:10;;;;;;;8.33;3.43;;;19.00;93.00;;;;;;4970781;28;20266;-65
2021/06/20 03:02:37;;;;;;;12.30;4.00;;;19.00;99.90;;;;;;4970111;28;20867;-65
2021/06/20 03:05:05;;;;;;;12.57;4.20;;;18.90;99.90;;;;;;4970940;28;20213;-65
2021/06/20 03:07:33;;;;;;;7.27;4.17;;;19.00;99.90;;;;;;4970809;28;20731;-64
2021/06/20 03:10:00;;;;;;;9.77;3.80;;;19.00;99.90;;;;;;4970829;28;20262;-65
2021/06/20 03:12:27;;;;;;;8.60;3.80;;;19.00;99.90;;;;;;4970834;28;20582;-65
2021/06/20 03:14:54;;;;;;;9.43;4.40;;;19.00;95.00;;;;;;4970853;28;20209;-65
2021/06/20 03:17:21;;;;;;;9.63;4.10;;;19.00;81.30;;;;;;4971034;28;20224;-64
2021/06/20 03:19:48;;;;;;;11.93;4.17;;;19.10;45.00;;;;;;4971185;28;20243;-64
2021/06/20 03:22:15;;;;;;;12.13;4.27;;;19.10;1.00;;;;;;4970815;28;20212;-64
2021/06/20 03:24:46;;;;;;;11.50;3.90;;;19.10;1.00;;;;;;4970794;28;20216;-64
2021/06/20 03:27:13;;;;;;;15.87;4.63;;;19.10;1.00;;;;;;4971400;28;20713;-64
2021/06/20 03:29:40;;;;;;;9.67;4.50;;;19.10;99.90;;;;;;4970885;28;20227;-66
2021/06/20 03:32:08;;;;;;;7.60;4.30;;;19.20;99.90;;;;;;4970940;28;20215;-64
2021/06/20 03:34:35;;;;;;;13.97;5.03;;;19.20;99.90;;;;;;4970958;28;20215;-64
2021/06/20 03:37:04;;;;;;;10.90;4.53;;;19.30;62.00;;;;;;4970546;28;20232;-64
2021/06/20 03:39:30;;;;;;;12.37;4.40;;;19.30;1.00;;;;;;4970665;28;20214;-64
2021/06/20 03:41:58;;;;;;;9.80;4.23;;;19.30;1.00;;;;;;4970621;28;20216;-64
2021/06/20 03:44:25;;;;;;;13.30;5.00;;;19.30;1.00;;;;;;4970699;28;20204;-65
2021/06/20 03:46:52;;;;;;;10.80;4.50;;;19.30;1.00;;;;;;4970408;28;20200;-65
2021/06/20 03:49:19;;;;;;;10.37;4.47;;;19.40;99.90;;;;;;4970594;28;20235;-65
2021/06/20 03:51:46;;;;;;;8.23;4.63;;;19.40;99.90;;;;;;4970487;28;20223;-64
2021/06/20 03:54:13;;;;;;;9.80;4.80;;;19.50;99.90;;;;;;4970638;28;20219;-65
2021/06/20 03:56:39;;;;;;;15.87;4.97;;;19.50;99.90;;;;;;4970755;28;20228;-64
2021/06/20 03:59:09;;;;;;;11.53;4.80;;;19.40;99.90;;;;;;4970469;28;20584;-65
2021/06/20 04:01:35;;;;;;;9.30;5.00;;;19.40;99.90;;;;;;4970394;28;20303;-65
2021/06/20 04:04:02;;;;;;;7.37;4.23;;;19.30;99.90;;;;;;4970538;28;20205;-64
2021/06/20 04:06:29;;;;;;;8.07;3.93;;;19.30;99.90;;;;;;4970164;28;20661;-64
2021/06/20 04:08:56;;;;;;;7.27;4.80;;;19.30;99.90;;;;;;4970362;28;20232;-65
2021/06/20 04:11:22;;;;;;;6.93;4.20;;;19.20;96.50;;;;;;4970644;28;20208;-65
2021/06/20 04:13:49;;;;;;;7.60;4.00;;;19.20;99.90;;;;;;4972474;28;20208;-64
2021/06/20 04:16:17;;;;;;;6.30;4.37;;;19.20;1.00;;;;;;4973524;28;20693;-64
2021/06/20 04:18:44;;;;;;;9.87;4.20;;;19.20;1.00;;;;;;4973649;28;20638;-65
2021/06/20 04:21:11;;;;;;;8.60;3.80;;;19.10;1.00;;;;;;4973157;28;20688;-65
2021/06/20 04:23:37;;;;;;;9.13;4.77;;;19.10;1.00;;;;;;4973554;28;20208;-65
2021/06/20 04:26:04;;;;;;;6.10;4.00;;;19.10;1.00;;;;;;4973527;28;20216;-65
2021/06/20 04:28:31;;;;;;;5.13;3.80;;;19.00;1.00;;;;;;4973092;28;20743;-64
2021/06/20 04:30:57;;;;;;;10.70;3.93;;;19.00;1.00;;;;;;4973304;28;20208;-64
2021/06/20 04:33:25;;;;;;;6.33;3.77;;;19.00;1.00;;;;;;4973215;28;20631;-65
2021/06/20 04:35:53;;;;;;;4.63;3.53;;;18.90;99.90;;;;;;4973072;28;20231;-64
2021/06/20 04:38:20;;;;;;;8.97;3.40;;;18.90;99.90;;;;;;4973191;28;20278;-64
2021/06/20 04:40:47;;;;;;;7.00;3.30;;;18.90;99.90;;;;;;4973210;28;20208;-64
2021/06/20 04:43:25;;;;;;;8.83;3.33;;;19.00;99.90;;;;;;4973225;28;20211;-65
2021/06/20 04:45:52;;;;;;;6.03;3.57;;;19.00;43.90;;;;;;4973149;28;20208;-65
2021/06/20 04:48:19;;;;;;;3.70;3.10;;;19.10;99.90;;;;;;4972833;28;20237;-65
2021/06/20 04:50:47;;;;;;;5.17;3.20;;;19.10;99.90;;;;;;4972955;28;20219;-65
2021/06/20 04:53:15;;;;;;;4.43;3.27;;;19.10;99.90;;;;;;4973233;28;20212;-65
2021/06/20 04:55:42;;;;;;;5.60;3.03;;;19.10;95.40;;;;;;4972925;28;20243;-65
2021/06/20 04:58:09;;;;;;;5.90;2.90;;;19.20;45.10;;;;;;4973196;28;20286;-65
2021/06/20 05:00:36;;;;;;;4.73;2.60;;;19.20;1.00;;;;;;4972813;28;20704;-64
2021/06/20 05:03:02;;;;;;;7.83;3.33;;;19.20;1.00;;;;;;4973106;28;20212;-64
2021/06/20 05:05:29;;;;;;;6.43;3.03;;;19.30;99.90;;;;;;4972955;28;20212;-65
2021/06/20 05:07:57;;;;;;;6.23;2.90;;;19.20;99.90;;;;;;4972707;28;20231;-65
2021/06/20 05:10:24;;;;;;;5.23;2.80;;;19.30;99.90;;;;;;4972623;28;20209;-65
2021/06/20 05:12:55;;;;;;;5.37;2.87;;;19.40;99.90;;;;;;4972792;28;20204;-65
2021/06/20 05:15:21;;;;;;;7.30;2.73;;;19.40;99.90;;;;;;4972414;28;20208;-65
2021/06/20 05:17:48;;;;;;;7.90;3.17;;;19.50;1.00;;;;;;4972669;28;20239;-65
2021/06/20 05:20:15;;;;;;;6.77;2.70;;;19.60;99.90;;;;;;4972414;28;20216;-65
2021/06/20 05:22:41;;;;;;;10.17;2.73;;;19.60;99.90;;;;;;4973032;28;20223;-65
2021/06/20 05:25:10;;;;;;;5.73;3.20;;;19.60;99.90;;;;;;4971755;28;20216;-65
2021/06/20 05:27:37;;;;;;;5.10;2.80;;;19.70;99.90;;;;;;4972362;28;20232;-65
2021/06/20 05:30:05;;;;;;;3.20;2.87;;;19.70;99.90;;;;;;4972293;28;20219;-65
2021/06/20 05:32:31;;;;;;;7.07;3.10;;;19.80;99.90;;;;;;4972264;28;20730;-65
2021/06/20 05:34:58;;;;;;;11.33;3.27;;;19.80;99.90;;;;;;4972735;28;20219;-65
2021/06/20 05:37:25;;;;;;;6.07;2.93;;;19.80;99.90;;;;;;4972143;28;20239;-65
2021/06/20 05:39:52;;;;;;;4.17;2.67;;;19.80;99.90;;;;;;4972383;28;20688;-65
2021/06/20 05:42:20;;;;;;;5.40;2.30;;;19.90;99.90;;;;;;4972139;28;20672;-65
2021/06/20 05:44:47;;;;;;;6.60;2.43;;;19.90;99.90;;;;;;4972483;28;20231;-65
2021/06/20 05:47:13;;;;;;;6.07;2.67;;;20.00;99.90;;;;;;4972137;28;20249;-65
2021/06/20 05:49:40;;;;;;;4.67;2.60;;;20.00;99.90;;;;;;4972246;28;20209;-65
2021/06/20 05:52:07;;;;;;;5.17;2.30;;;20.10;99.90;;;;;;4972171;28;20212;-65
2021/06/20 05:54:36;;;;;;;4.20;2.60;;;20.20;99.90;;;;;;4972210;28;20205;-65
2021/06/20 05:57:03;;;;;;;6.37;2.27;;;20.30;99.90;;;;;;4971840;28;20224;-65
2021/06/20 05:59:31;;;;;;;9.77;2.90;;;20.30;25.20;;;;;;4972404;28;20234;-65
2021/06/20 06:01:58;;;;;;;5.17;2.90;;;20.40;10.60;;;;;;4971888;28;20233;-65
2021/06/20 06:04:25;;;;;;;3.53;2.70;;;20.50;21.70;;;;;;4972527;28;20208;-65
2021/06/20 06:06:51;;;;;;;6.17;2.87;;;20.50;1.00;;;;;;4971803;28;20209;-65
2021/06/20 06:09:18;;;;;;;4.63;2.73;;;20.60;1.00;;;;;;4971741;28;20257;-65
2021/06/20 06:11:45;;;;;;;5.43;2.70;;;20.70;1.00;;;;;;4971882;28;20212;-65
2021/06/20 06:14:11;;;;;;;4.03;3.07;;;20.80;1.00;;;;;;4971981;28;20212;-65
2021/06/20 06:16:39;;;;;;;4.97;3.00;;;20.80;1.00;;;;;;4971671;28;20220;-65
2021/06/20 06:19:06;;;;;;;10.87;3.40;;;20.70;1.00;;;;;;4971552;28;20717;-65
2021/06/20 06:21:33;;;;;;;6.30;3.10;;;20.70;1.00;;;;;;4971477;28;20673;-65
2021/06/20 06:23:59;;;;;;;4.83;3.23;;;20.70;1.00;;;;;;4971424;28;20223;-65
2021/06/20 06:26:26;;;;;;;6.20;3.13;;;20.70;1.00;;;;;;4972101;28;20212;-65
2021/06/20 06:28:53;;;;;;;6.87;3.37;;;20.70;1.00;;;;;;4971487;28;20236;-65
2021/06/20 06:31:20;;;;;;;5.17;3.27;;;20.80;1.00;;;;;;4971564;28;20212;-65
2021/06/20 06:33:48;;;;;;;4.53;3.10;;;20.90;1.00;;;;;;4971341;28;20728;-65
2021/06/20 06:36:14;;;;;;;7.23;3.43;;;20.90;1.00;;;;;;4971513;28;20232;-65
2021/06/20 06:38:41;;;;;;;4.60;3.07;;;20.90;1.00;;;;;;4971083;28;20237;-65
2021/06/20 06:41:08;;;;;;;5.77;3.23;;;21.00;1.00;;;;;;4971553;28;20209;-63
2021/06/20 06:43:34;;;;;;;5.77;3.20;;;21.10;1.00;;;;;;4971569;28;20215;-66
2021/06/20 06:46:01;;;;;;;5.07;3.37;;;21.10;1.00;;;;;;4971402;28;20213;-66
2021/06/20 06:48:28;;;;;;;6.90;2.97;;;21.10;1.00;;;;;;4971371;28;20229;-66
2021/06/20 06:50:56;;;;;;;8.60;2.90;;;21.10;1.00;;;;;;4971033;28;20208;-66
2021/06/20 06:53:23;;;;;;;8.83;2.90;;;21.10;1.00;;;;;;4970996;28;20254;-66
2021/06/20 06:55:49;;;;;;;5.47;3.00;;;21.30;1.00;;;;;;4971234;28;20212;-66
2021/06/20 06:58:16;;;;;;;5.30;2.77;;;21.30;1.00;;;;;;4971352;28;20618;-66
2021/06/20 07:00:43;;;;;;;3.53;2.53;;;21.40;1.00;;;;;;4971096;28;20208;-66
2021/06/20 07:03:09;;;;;;;2.87;2.17;;;21.60;1.00;;;;;;4971238;28;20212;-66
2021/06/20 07:05:36;;;;;;;4.97;2.50;;;21.60;1.00;;;;;;4970919;28;20205;-66
2021/06/20 07:08:05;;;;;;;3.97;2.57;;;21.60;1.00;;;;;;4971116;28;20224;-66
2021/06/20 07:10:31;;;;;;;4.37;2.43;;;21.50;1.00;;;;;;4970965;28;20592;-66
2021/06/20 07:12:58;;;;;;;4.90;2.60;;;21.50;1.00;;;;;;4971108;28;20208;-66
2021/06/20 07:15:25;;;;;;;5.10;2.30;;;21.60;1.00;;;;;;4970725;28;20208;-66
2021/06/20 07:17:52;;;;;;;3.23;2.50;;;21.70;1.00;;;;;;4970760;28;20241;-66
2021/06/20 07:20:20;;;;;;;4.73;2.10;;;21.60;1.00;;;;;;4970628;28;20208;-66
2021/06/20 07:22:48;;;;;;;5.27;2.20;;;21.70;99.90;;;;;;4970898;28;20208;-66
2021/06/20 07:25:20;;;;;;;4.40;2.40;;;21.80;99.90;;;;;;4968686;28;20208;-65
2021/06/20 07:27:48;;;;;;;4.90;2.20;;;21.90;99.90;;;;;;4970528;28;20236;-66
2021/06/20 07:30:17;;;;;;;3.77;2.40;;;21.80;99.90;;;;;;4969689;28;20244;-66
2021/06/20 07:32:44;;;;;;;5.70;2.33;;;21.60;99.90;;;;;;4970400;28;20777;-67
2021/06/20 07:35:12;;;;;;;3.90;2.43;;;21.50;99.90;;;;;;4970370;28;20215;-65
2021/06/20 07:37:39;;;;;;;3.73;2.00;;;21.50;99.90;;;;;;4970463;28;20232;-67
2021/06/20 07:40:08;;;;;;;4.67;2.60;;;21.30;99.90;;;;;;4970622;28;20212;-66
2021/06/20 07:42:37;;;;;;;3.00;2.23;;;21.20;99.90;;;;;;4970457;28;20211;-66
2021/06/20 07:45:04;;;;;;;3.57;2.10;;;21.30;99.90;;;;;;4970535;28;20235;-66
2021/06/20 07:47:31;;;;;;;4.87;2.00;;;21.30;99.90;;;;;;4969821;28;20229;-66
2021/06/20 07:49:58;;;;;;;2.70;2.10;;;21.40;99.90;;;;;;4970547;28;20216;-67
2021/06/20 07:52:24;;;;;;;2.90;1.90;;;21.40;99.90;;;;;;4970298;28;20215;-65
2021/06/20 07:54:51;;;;;;;4.93;1.87;;;21.40;99.90;;;;;;4970489;28;20212;-65
2021/06/20 07:57:18;;;;;;;4.77;2.33;;;21.60;99.90;;;;;;4970274;28;20240;-66
2021/06/20 07:59:47;;;;;;;3.23;1.87;;;21.80;99.90;;;;;;4970148;28;20212;-65
2021/06/20 08:02:15;;;;;;;2.80;1.80;;;21.90;99.90;;;;;;4970046;28;20215;-65
2021/06/20 08:04:42;;;;;;;3.00;2.00;;;21.80;99.90;;;;;;4970579;28;20219;-65
2021/06/20 08:07:10;;;;;;;4.17;2.00;;;21.80;99.90;;;;;;4970373;28;20244;-65
2021/06/20 08:09:37;;;;;;;3.47;1.63;;;22.10;99.90;;;;;;4970209;28;20212;-66
2021/06/20 08:12:04;;;;;;;3.37;1.83;;;22.20;99.90;;;;;;4970052;28;20223;-65
2021/06/20 08:14:31;;;;;;;4.70;1.77;;;22.40;99.90;;;;;;4969818;28;20596;-65
2021/06/20 08:16:59;;;;;;;3.23;1.80;;;22.60;99.90;;;;;;4970430;28;20235;-66
2021/06/20 08:19:26;;;;;;;6.03;2.13;;;22.80;99.90;;;;;;4970048;28;20208;-66
2021/06/20 08:21:53;;;;;;;8.30;2.27;;;23.00;99.90;;;;;;4970062;28;20208;-66
2021/06/20 08:24:20;;;;;;;4.23;2.07;;;22.90;99.90;;;;;;4969984;28;20208;-65
2021/06/20 08:26:47;;;;;;;2.40;2.00;;;22.70;99.90;;;;;;4969974;28;20691;-66
2021/06/20 08:29:15;;;;;;;5.63;2.37;;;22.50;99.90;;;;;;4969398;28;20227;-66
2021/06/20 08:31:42;;;;;;;2.23;2.03;;;22.50;99.90;;;;;;4969928;28;20204;-65
2021/06/20 08:34:10;;;;;;;2.90;2.20;;;22.70;99.90;;;;;;4970185;28;20215;-65
2021/06/20 08:36:37;;;;;;;4.07;2.30;;;22.90;99.90;;;;;;4969881;28;20209;-66
2021/06/20 08:39:05;;;;;;;3.17;2.30;;;23.10;99.90;;;;;;4967979;28;20578;-65
2021/06/20 08:41:33;;;;;;;5.27;2.10;;;23.30;99.90;;;;;;4959866;28;20211;-65
2021/06/20 08:44:00;;;;;;;3.67;2.20;;;23.60;99.90;;;;;;4969519;28;20240;-65
2021/06/20 08:46:27;;;;;;;4.00;2.30;;;23.80;99.90;;;;;;4969415;28;20211;-65
2021/06/20 08:48:54;;;;;;;4.57;2.00;;;23.90;99.90;;;;;;4969388;28;20271;-64
2021/06/20 08:51:22;;;;;;;3.63;1.80;;;23.90;99.90;;;;;;4968828;28;20231;-66
2021/06/20 08:53:50;;;;;;;3.63;1.90;;;24.10;99.90;;;;;;4969826;28;20213;-66
2021/06/20 08:56:17;;;;;;;2.37;1.60;;;24.10;99.90;;;;;;4968986;28;20212;-66
2021/06/20 08:58:43;;;;;;;5.00;1.97;;;24.10;99.90;;;;;;4969209;28;20236;-66
2021/06/20 09:01:10;;;;;;;3.00;1.80;;;24.20;99.90;;;;;;4971386;28;20215;-66
2021/06/20 09:03:38;;;;;;;2.80;1.53;;;24.00;99.90;;;;;;4972576;28;20216;-66
2021/06/20 09:06:13;;;;;;;3.87;1.80;;;23.90;99.90;;;;;;4971677;28;20257;-66
2021/06/20 09:08:47;;;;;;;2.53;1.70;;;23.60;99.90;;;;;;4972421;28;20243;-67
2021/06/20 09:11:23;;;;;;;3.67;1.70;;;23.40;99.90;;;;;;4972109;28;20246;-66
2021/06/20 09:13:51;;;;;;;4.93;1.60;;;23.40;99.90;;;;;;4972492;28;20215;-66
2021/06/20 09:16:20;;;;;;;2.40;1.73;;;23.40;99.90;;;;;;4972390;28;20208;-66
2021/06/20 09:18:51;;;;;;;2.23;1.40;;;23.60;99.90;;;;;;4972048;28;20271;-66
2021/06/20 09:21:22;;;;;;;3.13;1.47;;;23.90;99.90;;;;;;4971615;28;20212;-65
2021/06/20 09:23:51;;;;;;;1.80;1.40;;;24.10;99.90;;;;;;4972483;28;20299;-66
2021/06/20 09:26:31;;;;;;;2.43;1.27;;;23.90;99.90;;;;;;4972499;28;20577;-66
2021/06/20 09:28:57;;;;;;;3.23;1.30;;;23.80;99.90;;;;;;4972103;28;20227;-67
2021/06/20 09:31:24;;;;;;;2.50;1.63;;;24.10;99.90;;;;;;4971587;28;20211;-67
2021/06/20 09:34:00;;;;;;;2.23;1.40;;;24.20;99.90;;;;;;4972081;28;20215;-66
2021/06/20 09:36:29;;;;;;;1.70;1.33;;;24.50;99.90;;;;;;4971885;28;20208;-67
2021/06/20 09:38:57;;;;;;;2.03;1.20;;;24.90;99.90;;;;;;4971658;28;20232;-66
2021/06/20 09:41:24;;;;;;;2.90;1.40;;;24.90;99.90;;;;;;4971569;28;20205;-67
2021/06/20 09:43:55;;;;;;;2.20;1.53;;;24.50;99.90;;;;;;4971962;28;20592;-66
2021/06/20 09:46:22;;;;;;;2.00;1.40;;;24.20;99.90;;;;;;4971624;28;20307;-66
2021/06/20 09:48:49;;;;;;;2.93;1.30;;;23.90;99.90;;;;;;4971777;28;20232;-67
2021/06/20 09:51:18;;;;;;;2.43;1.40;;;23.90;99.90;;;;;;4971464;28;20216;-66
2021/06/20 09:53:48;;;;;;;2.60;1.40;;;24.20;99.90;;;;;;4971728;28;20641;-66
2021/06/20 09:56:21;;;;;;;3.83;1.43;;;24.50;99.90;;;;;;4972126;28;20227;-67
2021/06/20 09:58:55;;;;;;;1.60;1.50;;;24.60;99.90;;;;;;4971475;28;20240;-67
2021/06/20 10:01:23;;;;;;;3.13;1.60;;;24.60;99.90;;;;;;4970465;28;20204;-67
2021/06/20 10:03:51;;;;;;;4.10;1.40;;;24.30;99.90;;;;;;4970572;28;20583;-66
2021/06/20 10:06:18;;;;;;;1.57;1.30;;;24.20;99.90;;;;;;4970329;28;20215;-66
2021/06/20 10:08:45;;;;;;;2.40;1.20;;;24.00;99.90;;;;;;4970396;28;20224;-67
2021/06/20 10:11:12;;;;;;;3.90;1.23;;;24.00;99.90;;;;;;4970395;28;20212;-69
2021/06/20 10:13:41;;;;;;;2.80;1.50;;;23.90;99.90;;;;;;4971735;28;20216;-65
2021/06/20 10:16:17;;;;;;;2.87;1.67;;;23.90;99.90;;;;;;4970703;28;20209;-66
2021/06/20 10:18:49;;;;;;;2.83;1.70;;;23.70;99.90;;;;;;4970524;28;20250;-70
2021/06/20 10:21:27;;;;;;;2.13;1.50;;;23.60;99.90;;;;;;4970239;28;20673;-68
2021/06/20 10:24:10;;;;;;;10.77;9.87;;;23.60;99.90;;;;;;4971174;28;20216;-66
2021/06/20 10:26:38;;;;;;;2.47;2.03;;;23.90;99.90;;;;;;4970197;28;20207;-65
2021/06/20 10:29:19;;;;;;;5.10;1.40;;;24.20;99.90;;;;;;4971062;28;20318;-64
2021/06/20 10:31:46;;;;;;;1.80;1.40;;;24.50;99.90;;;;;;4970933;28;20215;-64
2021/06/20 10:34:21;;;;;;;2.03;1.20;;;24.70;99.90;;;;;;4970888;28;20232;-68
2021/06/20 10:36:50;;;;;;;3.10;1.23;;;24.90;99.90;;;;;;4971143;28;20219;-66
2021/06/20 10:39:17;;;;;;;2.83;1.10;;;25.20;99.90;;;;;;4971269;28;20228;-67
2021/06/20 10:41:44;;;;;;;5.83;1.30;;;25.50;99.90;;;;;;4970730;28;20556;-67
2021/06/20 10:44:11;;;;;;;2.57;1.30;;;25.70;99.90;;;;;;4971036;28;20211;-66
2021/06/20 10:46:41;;;;;;;1.20;1.00;;;25.50;99.90;;;;;;4970565;28;20212;-66
2021/06/20 10:49:20;;;;;;;2.80;0.90;;;25.50;99.90;;;;;;4970818;28;20320;-66
2021/06/20 10:51:47;;;;;;;2.20;1.20;;;25.40;99.90;;;;;;4970681;28;20212;-66
2021/06/20 10:54:27;;;;;;;4.67;1.57;;;25.20;99.90;;;;;;4970921;28;20215;-67
2021/06/20 10:56:59;;;;;;;1.70;1.03;;;25.20;99.90;;;;;;4970596;28;20669;-67
2021/06/20 10:59:26;;;;;;;2.43;1.40;;;25.20;99.90;;;;;;4970867;28;20235;-67
2021/06/20 11:01:54;;;;;;;3.17;2.70;;;25.30;99.90;;;;;;4970609;28;20303;-66
2021/06/20 11:04:21;;;;;;;1.73;1.23;;;25.30;99.90;;;;;;4970905;28;20701;-67
2021/06/20 11:06:55;;;;;;;2.47;1.20;;;25.30;99.90;;;;;;4971204;28;20213;-66
2021/06/20 11:09:23;;;;;;;2.40;1.63;;;25.20;99.90;;;;;;4970869;28;20300;-66
2021/06/20 11:11:52;;;;;;;1.40;1.10;;;24.80;99.90;;;;;;4969806;28;20217;-67
2021/06/20 11:14:19;;;;;;;5.30;1.60;;;24.80;99.90;;;;;;4970617;28;20277;-67
2021/06/20 11:16:47;;;;;;;3.23;1.10;;;24.90;99.90;;;;;;4970566;28;20215;-67
2021/06/20 11:19:17;;;;;;;2.67;1.50;;;24.80;99.90;;;;;;4970449;28;20232;-66
2021/06/20 11:21:46;;;;;;;1.40;1.10;;;24.60;99.90;;;;;;4970193;28;20235;-67
2021/06/20 11:24:16;;;;;;;2.07;1.30;;;24.70;99.90;;;;;;4969671;28;20373;-68
2021/06/20 11:26:53;;;;;;;1.30;1.20;;;25.00;99.90;;;;;;4970651;28;20212;-68
2021/06/20 11:29:21;;;;;;;2.93;1.10;;;25.30;99.90;;;;;;4970232;28;20230;-67
2021/06/20 11:31:49;;;;;;;2.70;1.30;;;25.60;99.90;;;;;;4970029;28;20208;-69
2021/06/20 11:34:17;;;;;;;3.80;1.30;;;25.40;99.90;;;;;;4970432;28;20262;-68
2021/06/20 11:36:45;;;;;;;1.30;1.20;;;25.50;99.90;;;;;;4969883;28;20228;-67
2021/06/20 11:39:13;;;;;;;4.57;1.43;;;25.50;99.90;;;;;;4970367;28;20233;-67
2021/06/20 11:41:42;;;;;;;1.70;1.10;;;25.50;99.90;;;;;;4969768;28;20212;-67
2021/06/20 11:44:09;;;;;;;2.03;1.30;;;25.70;99.90;;;;;;4970394;28;20261;-67
2021/06/20 11:46:37;;;;;;;1.87;1.30;;;25.70;99.90;;;;;;4970164;28;20243;-67
2021/06/20 11:49:05;;;;;;;1.97;1.33;;;25.50;99.90;;;;;;4970184;28;20229;-68
2021/06/20 11:51:38;;;;;;;3.93;1.13;;;25.80;99.90;;;;;;4969679;28;20673;-67
2021/06/20 11:54:26;;;;;;;2.50;1.30;;;26.00;99.90;;;;;;4970080;28;20216;-68
2021/06/20 11:56:54;;;;;;;1.50;1.20;;;25.90;99.90;;;;;;4970092;28;20208;-68
2021/06/20 11:59:30;;;;;;;6.13;1.40;;;25.60;99.90;;;;;;4970166;28;20230;-68
2021/06/20 12:01:57;;;;;;;1.87;1.30;;;25.50;99.90;;;;;;4969788;28;20212;-67
2021/06/20 12:04:43;;;;;;;2.20;1.43;;;25.40;99.90;;;;;;4970126;28;20212;-69
2021/06/20 12:07:12;;;;;;;2.73;1.30;;;25.70;99.90;;;;;;4970356;28;20228;-66
2021/06/20 12:09:39;;;;;;;3.93;1.40;;;26.00;99.90;;;;;;4969560;28;20212;-67
2021/06/20 12:12:10;;;;;;;3.33;1.30;;;26.30;99.90;;;;;;4969711;28;20208;-67
2021/06/20 12:14:38;;;;;;;1.63;1.23;;;26.30;99.90;;;;;;4970030;28;20212;-67
2021/06/20 12:17:07;;;;;;;2.23;1.30;;;26.20;99.90;;;;;;4969825;28;20212;-67
2021/06/20 12:19:35;;;;;;;3.10;1.10;;;26.00;99.90;;;;;;4969581;28;20220;-66
2021/06/20 12:22:13;;;;;;;3.17;2.00;;;26.20;99.90;;;;;;4969708;28;20212;-66
2021/06/20 12:24:42;;;;;;;12.70;9.93;;;26.30;99.90;;;;;;4969986;28;20212;-68
2021/06/20 12:27:11;;;;;;;2.00;1.40;;;26.50;99.90;;;;;;4970101;28;20233;-66
2021/06/20 12:29:38;;;;;;;1.20;1.10;;;26.70;99.90;;;;;;4969459;28;20585;-66
2021/06/20 12:32:07;;;;;;;1.43;1.13;;;26.70;99.90;;;;;;4969446;28;20215;-67
2021/06/20 12:34:42;;;;;;;1.67;1.20;;;26.70;99.90;;;;;;4971612;28;20220;-67
2021/06/20 12:37:09;;;;;;;2.50;1.57;;;26.70;99.90;;;;;;4972689;28;20215;-66
2021/06/20 12:39:49;;;;;;;5.50;1.40;;;26.60;99.90;;;;;;4972877;28;20240;-66
2021/06/20 12:42:16;;;;;;;1.93;1.30;;;26.40;99.90;;;;;;4972795;28;20215;-67
2021/06/20 12:44:46;;;;;;;1.93;1.03;;;26.40;99.90;;;;;;4972914;28;20209;-67
2021/06/20 12:47:14;;;;;;;2.90;1.30;;;26.40;99.90;;;;;;4972694;28;20315;-67
2021/06/20 12:49:44;;;;;;;2.70;1.10;;;26.50;99.90;;;;;;4972695;28;20232;-67
2021/06/20 12:52:11;;;;;;;1.33;1.00;;;26.70;99.90;;;;;;4972666;28;20208;-67